Time;durP1;ratioP1;P1;durP2;ratioP2;P2;SDS_P1;SDS_P2;PMS_P1;PMS_P2;Temp;Humidity;BMP_temperature;BMP_pressure;BME280_temperature;BME280_humidity;BME280_pressure;Samples;Min_cycle;Max_cycle;Signal;HPM_P1;HPM_P2
2021/12/07 00:01:38;;;;;;;20.43;7.13;;;;;;;;;;5084811;28;20036;-90
2021/12/07 00:04:04;;;;;;;18.17;7.80;;;;;;;;;;5084558;28;20033;-91
2021/12/07 00:06:29;;;;;;;16.47;6.43;;;;;;;;;;5076817;28;20754;-90
2021/12/07 00:08:56;;;;;;;14.23;6.63;;;;;;;;;;5051794;28;20030;-90
2021/12/07 00:11:25;;;;;;;17.43;7.57;;;;;;;;;;5059623;28;20021;-90
2021/12/07 00:13:51;;;;;;;12.70;5.23;;;;;;;;;;5051477;28;20025;-90
2021/12/07 00:16:18;;;;;;;18.77;5.97;;;;;;;;;;5060270;28;20353;-90
2021/12/07 00:18:44;;;;;;;19.30;5.90;;;;;;;;;;5051508;28;20017;-90
2021/12/07 00:21:10;;;;;;;14.57;5.63;;;;;;;;;;5059437;28;20070;-90
2021/12/07 00:23:36;;;;;;;18.47;4.77;;;;;;;;;;5043673;28;20032;-90
2021/12/07 00:26:01;;;;;;;19.23;6.17;;;;;;;;;;5051498;28;20032;-90
2021/12/07 00:28:27;;;;;;;20.47;6.03;;;;;;;;;;5051597;28;20160;-90
2021/12/07 00:30:53;;;;;;;21.37;5.70;;;;;;;;;;5052968;28;20449;-90
2021/12/07 00:35:44;;;;;;;17.00;4.80;;;;;;;;;;5057337;28;20108;-90
2021/12/07 00:38:14;;;;;;;20.20;4.27;;;;;;;;;;5056863;28;20048;-90
2021/12/07 00:40:40;;;;;;;13.80;4.70;;;;;;;;;;5052319;28;20055;-90
2021/12/07 00:43:06;;;;;;;18.33;4.67;;;;;;;;;;5051484;28;20083;-90
2021/12/07 00:45:34;;;;;;;18.00;4.10;;;;;;;;;;5086064;28;20017;-90
2021/12/07 00:47:59;;;;;;;12.60;3.90;;;;;;;;;;5062825;28;20527;-90
2021/12/07 00:50:25;;;;;;;17.37;4.10;;;;;;;;;;5055228;28;20051;-90
2021/12/07 00:52:50;;;;;;;13.40;3.90;;;;;;;;;;5054661;28;20473;-90
2021/12/07 00:55:18;;;;;;;19.90;4.33;;;;;;;;;;5055150;28;20540;-90
2021/12/07 00:57:44;;;;;;;20.63;4.03;;;;;;;;;;5052676;28;20092;-90
2021/12/07 01:00:15;;;;;;;10.77;4.23;;;;;;;;;;5049667;28;20441;-90
2021/12/07 01:02:41;;;;;;;16.60;3.87;;;;;;;;;;5065142;28;20083;-90
2021/12/07 01:05:14;;;;;;;16.53;4.57;;;;;;;;;;5065909;28;20371;-90
2021/12/07 01:07:56;;;;;;;14.73;3.17;;;;;;;;;;5055550;28;20098;-90
2021/12/07 01:26:46;;;;;;;17.23;3.57;;;;;;;;;;5055352;28;20036;-90
2021/12/07 01:29:11;;;;;;;13.40;3.20;;;;;;;;;;5054080;28;20049;-91
2021/12/07 01:37:12;;;;;;;14.77;3.23;;;;;;;;;;5047908;28;20035;-90
2021/12/07 01:45:14;;;;;;;13.37;2.97;;;;;;;;;;5055230;28;20450;-90
2021/12/07 02:00:30;;;;;;;17.07;3.43;;;;;;;;;;5054935;28;20024;-90
2021/12/07 02:02:55;;;;;;;13.73;3.57;;;;;;;;;;5055663;28;20044;-90
2021/12/07 02:05:21;;;;;;;12.43;2.37;;;;;;;;;;5053603;28;20464;-90
2021/12/07 02:07:46;;;;;;;18.37;3.40;;;;;;;;;;5046084;28;20481;-90
2021/12/07 02:10:16;;;;;;;15.60;3.70;;;;;;;;;;5060520;28;20373;-90
2021/12/07 02:12:44;;;;;;;8.70;2.10;;;;;;;;;;5086205;28;20094;-90
2021/12/07 02:15:11;;;;;;;16.70;2.60;;;;;;;;;;5078415;28;20025;-90
2021/12/07 02:17:36;;;;;;;13.60;2.23;;;;;;;;;;5086116;28;20039;-90
2021/12/07 02:20:01;;;;;;;17.00;2.70;;;;;;;;;;5086324;28;20029;-90
2021/12/07 02:22:27;;;;;;;16.90;2.57;;;;;;;;;;5086380;28;20021;-90
2021/12/07 02:24:52;;;;;;;11.43;2.57;;;;;;;;;;5052769;28;20029;-90
2021/12/07 02:27:17;;;;;;;12.20;2.63;;;;;;;;;;5053154;28;20078;-90
2021/12/07 02:29:42;;;;;;;15.83;2.63;;;;;;;;;;5052802;28;20021;-90
2021/12/07 02:32:08;;;;;;;10.73;2.20;;;;;;;;;;5053101;28;20017;-90
2021/12/07 02:34:35;;;;;;;16.73;2.57;;;;;;;;;;5053880;28;20059;-90
2021/12/07 02:37:01;;;;;;;15.07;1.97;;;;;;;;;;5085815;28;20083;-90
2021/12/07 02:39:31;;;;;;;13.00;2.40;;;;;;;;;;5059016;28;20016;-90
2021/12/07 02:41:56;;;;;;;15.60;2.73;;;;;;;;;;5063997;28;20116;-90
2021/12/07 02:44:21;;;;;;;13.83;2.27;;;;;;;;;;5052542;28;20053;-90
2021/12/07 02:46:46;;;;;;;13.83;2.57;;;;;;;;;;5052478;28;20025;-90
2021/12/07 02:49:11;;;;;;;21.87;2.63;;;;;;;;;;5085545;28;20032;-90
2021/12/07 02:51:37;;;;;;;12.87;2.07;;;;;;;;;;5053436;28;20519;-90
2021/12/07 02:54:02;;;;;;;10.30;2.30;;;;;;;;;;5052463;28;20025;-90
2021/12/07 02:56:28;;;;;;;19.57;2.60;;;;;;;;;;5052535;28;20111;-90
2021/12/07 02:58:58;;;;;;;17.80;2.20;;;;;;;;;;5052412;28;20056;-90
2021/12/07 03:01:28;;;;;;;22.80;2.80;;;;;;;;;;5052005;28;20025;-90
2021/12/07 03:04:09;;;;;;;11.00;2.13;;;;;;;;;;5052437;28;20021;-90
2021/12/07 03:07:16;;;;;;;16.80;2.87;;;;;;;;;;5057148;28;20016;-90
2021/12/07 03:28:16;;;;;;;9.30;2.00;;;;;;;;;;5054587;28;20029;-90
2021/12/07 03:30:41;;;;;;;11.43;2.00;;;;;;;;;;5058870;28;20114;-90
2021/12/07 03:33:07;;;;;;;9.20;2.20;;;;;;;;;;5054798;28;20028;-90
2021/12/07 03:35:32;;;;;;;12.37;2.13;;;;;;;;;;5044427;28;20036;-90
2021/12/07 03:37:58;;;;;;;13.20;2.50;;;;;;;;;;5092356;28;20068;-90
2021/12/07 03:40:23;;;;;;;5.70;1.43;;;;;;;;;;5052653;28;20108;-90
2021/12/07 03:42:49;;;;;;;14.40;1.80;;;;;;;;;;5059896;28;20535;-90
2021/12/07 03:45:14;;;;;;;7.80;1.57;;;;;;;;;;5053620;28;20029;-90
2021/12/07 03:47:40;;;;;;;10.23;1.97;;;;;;;;;;5059107;28;20377;-90
2021/12/07 03:50:06;;;;;;;8.60;2.00;;;;;;;;;;5084952;28;20036;-90
2021/12/07 03:52:31;;;;;;;14.47;1.93;;;;;;;;;;5051275;28;20017;-90
2021/12/07 03:54:56;;;;;;;5.47;1.70;;;;;;;;;;5051920;28;20116;-90
2021/12/07 03:57:21;;;;;;;14.47;2.87;;;;;;;;;;5051607;28;20025;-90
2021/12/07 03:59:47;;;;;;;8.83;2.27;;;;;;;;;;5055517;28;20025;-90
2021/12/07 04:02:12;;;;;;;12.63;2.10;;;;;;;;;;5051663;28;20043;-90
2021/12/07 04:04:38;;;;;;;14.73;2.63;;;;;;;;;;5062915;28;20029;-90
2021/12/07 04:07:03;;;;;;;13.73;2.23;;;;;;;;;;5056209;28;20027;-90
2021/12/07 04:09:30;;;;;;;8.97;2.60;;;;;;;;;;5051319;28;20021;-90
2021/12/07 04:11:55;;;;;;;15.13;2.20;;;;;;;;;;5057246;28;20021;-90
2021/12/07 04:14:20;;;;;;;12.20;2.47;;;;;;;;;;5053592;28;20372;-90
2021/12/07 04:16:45;;;;;;;7.60;1.90;;;;;;;;;;5059366;28;20040;-90
2021/12/07 04:19:11;;;;;;;16.53;2.43;;;;;;;;;;5051343;28;20043;-90
2021/12/07 04:21:36;;;;;;;16.30;2.40;;;;;;;;;;5051120;28;20032;-90
2021/12/07 04:24:01;;;;;;;11.77;1.93;;;;;;;;;;5051892;28;20021;-90
2021/12/07 04:26:26;;;;;;;14.83;2.27;;;;;;;;;;5056565;28;20040;-90
2021/12/07 04:28:52;;;;;;;17.17;1.97;;;;;;;;;;5055712;28;20027;-90
2021/12/07 04:31:17;;;;;;;16.43;2.10;;;;;;;;;;5055558;28;20056;-90
2021/12/07 04:33:43;;;;;;;9.27;1.97;;;;;;;;;;5055492;28;20017;-90
2021/12/07 04:36:09;;;;;;;11.23;2.30;;;;;;;;;;5055151;28;20025;-90
2021/12/07 04:38:34;;;;;;;12.07;2.30;;;;;;;;;;5063667;28;20082;-90
2021/12/07 04:41:00;;;;;;;16.87;2.20;;;;;;;;;;5056350;28;20104;-90
2021/12/07 04:43:25;;;;;;;11.13;2.27;;;;;;;;;;5054670;28;20534;-90
2021/12/07 04:46:00;;;;;;;15.77;2.70;;;;;;;;;;5054564;28;20040;-90
2021/12/07 04:59:05;;;;;;;13.00;2.03;;;;;;;;;;5049948;28;20032;-90
2021/12/07 05:01:31;;;;;;;10.23;2.43;;;;;;;;;;5087685;28;20017;-90
2021/12/07 05:04:00;;;;;;;13.77;2.13;;;;;;;;;;5054463;28;20027;-90
2021/12/07 05:06:29;;;;;;;9.47;2.20;;;;;;;;;;5054147;28;20021;-90
2021/12/07 05:08:59;;;;;;;14.43;2.20;;;;;;;;;;5046253;28;20480;-90
2021/12/07 05:14:18;;;;;;;14.17;1.97;;;;;;;;;;5054517;28;20025;-90
2021/12/07 05:23:54;;;;;;;8.73;1.70;;;;;;;;;;5055983;28;20027;-90
2021/12/07 05:38:32;;;;;;;9.03;1.83;;;;;;;;;;5063369;28;20027;-90
2021/12/07 05:40:58;;;;;;;7.93;2.47;;;;;;;;;;5056232;28;20470;-90
2021/12/07 05:43:23;;;;;;;8.63;1.97;;;;;;;;;;5058862;28;20025;-90
2021/12/07 05:45:49;;;;;;;13.47;2.67;;;;;;;;;;5053145;28;20525;-90
2021/12/07 05:48:14;;;;;;;6.50;1.53;;;;;;;;;;5061527;28;20419;-90
2021/12/07 05:50:40;;;;;;;9.47;2.07;;;;;;;;;;5053671;28;20024;-89
2021/12/07 05:53:06;;;;;;;8.53;1.97;;;;;;;;;;5053775;28;20017;-90
2021/12/07 05:55:31;;;;;;;13.40;2.20;;;;;;;;;;5054863;28;20499;-90
2021/12/07 05:57:57;;;;;;;7.43;1.67;;;;;;;;;;5086128;28;20115;-89
2021/12/07 06:00:26;;;;;;;4.27;0.93;;;;;;;;;;5053167;28;20436;-90
2021/12/07 06:02:53;;;;;;;11.00;2.10;;;;;;;;;;5053988;28;20025;-90
2021/12/07 06:05:19;;;;;;;13.20;1.73;;;;;;;;;;5053243;28;20021;-90
2021/12/07 06:07:44;;;;;;;13.47;1.97;;;;;;;;;;5053148;28;20590;-90
2021/12/07 06:10:09;;;;;;;10.87;1.97;;;;;;;;;;5052769;28;20044;-89
2021/12/07 06:12:34;;;;;;;9.33;1.73;;;;;;;;;;5059498;28;20075;-89
2021/12/07 06:15:00;;;;;;;12.10;1.90;;;;;;;;;;5062562;28;20111;-90
2021/12/07 06:17:25;;;;;;;8.53;1.60;;;;;;;;;;5045611;28;20103;-90
2021/12/07 06:19:50;;;;;;;11.73;2.20;;;;;;;;;;5053972;28;20031;-90
2021/12/07 06:22:15;;;;;;;14.07;2.07;;;;;;;;;;5053250;28;20029;-90
2021/12/07 06:24:41;;;;;;;13.30;2.10;;;;;;;;;;5060981;28;20044;-90
2021/12/07 06:27:06;;;;;;;13.53;1.83;;;;;;;;;;5060760;28;20025;-90
2021/12/07 06:29:31;;;;;;;12.20;2.17;;;;;;;;;;5052819;28;20095;-90
2021/12/07 06:31:56;;;;;;;9.90;1.87;;;;;;;;;;5052704;28;20395;-90
2021/12/07 06:34:22;;;;;;;8.30;1.80;;;;;;;;;;5052829;28;20020;-90
2021/12/07 06:36:47;;;;;;;9.73;2.07;;;;;;;;;;5061009;28;20032;-89
2021/12/07 06:39:12;;;;;;;17.37;1.83;;;;;;;;;;5055168;28;20031;-90
2021/12/07 06:41:37;;;;;;;7.07;1.83;;;;;;;;;;5048583;28;20055;-90
2021/12/07 06:44:03;;;;;;;10.40;2.23;;;;;;;;;;5050286;28;20032;-90
2021/12/07 06:46:28;;;;;;;15.00;2.30;;;;;;;;;;5081544;28;20334;-90
2021/12/07 06:48:53;;;;;;;15.63;2.43;;;;;;;;;;5046861;28;20374;-90
2021/12/07 06:51:19;;;;;;;12.37;1.83;;;;;;;;;;5054883;28;20029;-90
2021/12/07 06:53:44;;;;;;;11.73;2.10;;;;;;;;;;5057905;28;20389;-90
2021/12/07 06:56:09;;;;;;;12.20;1.93;;;;;;;;;;5045165;28;20465;-90
2021/12/07 06:58:35;;;;;;;8.07;2.20;;;;;;;;;;5052868;28;20029;-89
2021/12/07 07:01:01;;;;;;;11.83;1.97;;;;;;;;;;5053333;28;20102;-90
2021/12/07 07:03:26;;;;;;;16.67;3.80;;;;;;;;;;5044159;28;20038;-90
2021/12/07 07:05:52;;;;;;;13.50;3.20;;;;;;;;;;5052294;28;20075;-90
2021/12/07 07:08:17;;;;;;;17.30;3.20;;;;;;;;;;5043391;28;20103;-90
2021/12/07 07:10:43;;;;;;;16.47;3.43;;;;;;;;;;5037658;28;20032;-90
2021/12/07 07:13:08;;;;;;;13.60;2.97;;;;;;;;;;5086118;28;20029;-90
2021/12/07 07:15:33;;;;;;;12.93;3.27;;;;;;;;;;5082415;28;20022;-90
2021/12/07 07:18:00;;;;;;;11.87;3.20;;;;;;;;;;5055982;28;20057;-90
2021/12/07 07:20:25;;;;;;;10.27;2.70;;;;;;;;;;5076745;28;20472;-90
2021/12/07 07:22:51;;;;;;;29.77;4.87;;;;;;;;;;5047068;28;20021;-90
2021/12/07 07:25:16;;;;;;;20.10;4.87;;;;;;;;;;5052750;28;20442;-89
2021/12/07 07:27:42;;;;;;;18.77;4.03;;;;;;;;;;5048858;28;20025;-91
2021/12/07 07:30:08;;;;;;;26.73;6.03;;;;;;;;;;5055275;28;20488;-90
2021/12/07 07:32:34;;;;;;;19.33;3.90;;;;;;;;;;5047962;28;20021;-90
2021/12/07 07:34:59;;;;;;;10.27;3.50;;;;;;;;;;5051092;28;20444;-90
2021/12/07 07:37:24;;;;;;;16.07;4.40;;;;;;;;;;5068936;28;20023;-90
2021/12/07 07:39:50;;;;;;;14.80;3.70;;;;;;;;;;5063076;28;20031;-90
2021/12/07 07:42:15;;;;;;;6.73;1.90;;;;;;;;;;5058256;28;20017;-90
2021/12/07 07:44:40;;;;;;;8.80;1.93;;;;;;;;;;5051730;28;20075;-90
2021/12/07 07:47:05;;;;;;;11.17;2.10;;;;;;;;;;5077046;28;20577;-90
2021/12/07 07:49:31;;;;;;;8.57;2.00;;;;;;;;;;5052131;28;20071;-90
2021/12/07 07:51:56;;;;;;;7.77;1.63;;;;;;;;;;5052157;28;20017;-90
2021/12/07 07:54:21;;;;;;;11.77;2.43;;;;;;;;;;5053961;28;20104;-90
2021/12/07 07:56:47;;;;;;;16.63;2.80;;;;;;;;;;5041830;28;20111;-90
2021/12/07 07:59:12;;;;;;;12.93;2.87;;;;;;;;;;5084928;28;20032;-90
2021/12/07 08:01:37;;;;;;;6.97;2.60;;;;;;;;;;5089349;28;20388;-90
2021/12/07 08:04:03;;;;;;;9.50;2.87;;;;;;;;;;5052443;28;20400;-90
2021/12/07 08:06:29;;;;;;;12.23;3.37;;;;;;;;;;5052269;28;20028;-90
2021/12/07 08:08:54;;;;;;;20.87;3.37;;;;;;;;;;5077591;28;20032;-90
2021/12/07 08:11:19;;;;;;;14.53;2.60;;;;;;;;;;5051098;28;20021;-90
2021/12/07 08:13:45;;;;;;;12.77;3.00;;;;;;;;;;5055767;28;20017;-90
2021/12/07 08:16:15;;;;;;;7.03;1.90;;;;;;;;;;5055894;28;20029;-91
2021/12/07 08:18:47;;;;;;;16.47;1.97;;;;;;;;;;5065089;28;20451;-90
2021/12/07 08:21:14;;;;;;;14.43;2.40;;;;;;;;;;5081663;28;20491;-91
2021/12/07 08:23:39;;;;;;;12.13;1.80;;;;;;;;;;5055389;28;20029;-90
2021/12/07 08:26:05;;;;;;;14.10;1.90;;;;;;;;;;5056323;28;20507;-90
2021/12/07 08:28:31;;;;;;;13.47;2.27;;;;;;;;;;5058550;28;20013;-91
2021/12/07 08:30:56;;;;;;;9.97;1.73;;;;;;;;;;5056226;28;20021;-90
2021/12/07 08:33:21;;;;;;;9.80;2.17;;;;;;;;;;5056783;28;20070;-90
2021/12/07 08:35:47;;;;;;;13.40;2.33;;;;;;;;;;5055728;28;20040;-90
2021/12/07 08:38:12;;;;;;;12.80;2.43;;;;;;;;;;5055429;28;20376;-90
2021/12/07 08:40:39;;;;;;;11.70;2.50;;;;;;;;;;5055489;28;20029;-91
2021/12/07 08:43:05;;;;;;;14.70;2.60;;;;;;;;;;5055298;28;20021;-90
2021/12/07 08:45:30;;;;;;;7.83;1.77;;;;;;;;;;5055622;28;20029;-90
2021/12/07 08:47:56;;;;;;;9.63;2.50;;;;;;;;;;5055292;28;20389;-91
2021/12/07 08:50:24;;;;;;;12.93;2.53;;;;;;;;;;5055231;28;20056;-91
2021/12/07 08:52:52;;;;;;;16.53;2.80;;;;;;;;;;5060414;28;20016;-91
2021/12/07 09:00:48;;;;;;;16.53;2.73;;;;;;;;;;5068058;28;20094;-91
2021/12/07 09:03:13;;;;;;;15.60;3.03;;;;;;;;;;5054788;28;20017;-92
2021/12/07 09:05:38;;;;;;;15.60;2.90;;;;;;;;;;5055468;28;20392;-92
2021/12/07 09:08:04;;;;;;;11.93;2.73;;;;;;;;;;5062906;28;20017;-92
2021/12/07 09:10:29;;;;;;;17.83;2.73;;;;;;;;;;5087901;28;20013;-92
2021/12/07 09:12:54;;;;;;;13.57;2.83;;;;;;;;;;5055087;28;20051;-92
2021/12/07 09:15:19;;;;;;;11.03;2.60;;;;;;;;;;5054903;28;20048;-92
2021/12/07 09:17:45;;;;;;;12.27;2.30;;;;;;;;;;5067375;28;20036;-92
2021/12/07 09:20:11;;;;;;;14.97;2.70;;;;;;;;;;5056206;28;20051;-92
2021/12/07 09:22:37;;;;;;;13.27;2.30;;;;;;;;;;5054398;28;20048;-89
2021/12/07 09:25:03;;;;;;;10.23;2.03;;;;;;;;;;5079043;28;20029;-90
2021/12/07 09:27:28;;;;;;;12.33;2.13;;;;;;;;;;5053917;28;20031;-89
2021/12/07 09:29:53;;;;;;;14.87;2.27;;;;;;;;;;5053867;28;20017;-90
2021/12/07 09:32:20;;;;;;;13.73;2.93;;;;;;;;;;5054054;28;20029;-90
2021/12/07 09:34:45;;;;;;;15.33;2.40;;;;;;;;;;5053932;28;20389;-89
2021/12/07 09:37:11;;;;;;;11.70;2.37;;;;;;;;;;5053660;28;20032;-89
2021/12/07 09:39:36;;;;;;;9.63;2.57;;;;;;;;;;5053860;28;20067;-89
2021/12/07 09:42:01;;;;;;;12.67;2.47;;;;;;;;;;5053596;28;20025;-89
2021/12/07 09:44:26;;;;;;;23.23;3.20;;;;;;;;;;5086814;28;20021;-90
2021/12/07 09:46:52;;;;;;;10.63;2.00;;;;;;;;;;5053565;28;20047;-89
2021/12/07 09:49:17;;;;;;;23.47;2.70;;;;;;;;;;5053105;28;20366;-90
2021/12/07 09:51:43;;;;;;;15.63;2.60;;;;;;;;;;5053037;28;20397;-89
2021/12/07 09:54:09;;;;;;;11.67;2.50;;;;;;;;;;5053319;28;20043;-89
2021/12/07 09:56:35;;;;;;;12.73;2.33;;;;;;;;;;5057599;28;20426;-90
2021/12/07 09:59:00;;;;;;;12.30;2.47;;;;;;;;;;5056791;28;20024;-89
2021/12/07 10:01:27;;;;;;;18.50;2.90;;;;;;;;;;5052117;28;20361;-89
2021/12/07 10:03:52;;;;;;;9.40;2.10;;;;;;;;;;5059422;28;20051;-89
2021/12/07 10:06:18;;;;;;;13.57;1.93;;;;;;;;;;5062405;28;20067;-89
2021/12/07 10:08:43;;;;;;;7.37;1.90;;;;;;;;;;5052995;28;20013;-89
2021/12/07 10:11:09;;;;;;;7.77;2.20;;;;;;;;;;5052741;28;20548;-89
2021/12/07 10:13:35;;;;;;;12.30;3.47;;;;;;;;;;5061860;28;20116;-89
2021/12/07 10:16:02;;;;;;;12.97;2.57;;;;;;;;;;5085031;28;20428;-89
2021/12/07 10:18:28;;;;;;;15.60;2.27;;;;;;;;;;5052661;28;20024;-92
2021/12/07 10:21:01;;;;;;;14.53;2.17;;;;;;;;;;5061545;28;20020;-90
2021/12/07 10:23:29;;;;;;;19.90;2.53;;;;;;;;;;5053097;28;20384;-89
2021/12/07 10:26:03;;;;;;;12.40;2.63;;;;;;;;;;5050162;28;20025;-89
2021/12/07 10:28:28;;;;;;;15.33;2.90;;;;;;;;;;5092418;28;20024;-90
2021/12/07 10:30:55;;;;;;;14.60;2.33;;;;;;;;;;5058278;28;20487;-90
2021/12/07 10:33:49;;;;;;;13.87;2.87;;;;;;;;;;5054738;28;20025;-89
2021/12/07 10:36:19;;;;;;;12.70;2.33;;;;;;;;;;5040393;28;20093;-89
2021/12/07 10:38:50;;;;;;;7.63;1.83;;;;;;;;;;5053021;28;20028;-89
2021/12/07 10:41:21;;;;;;;13.73;2.17;;;;;;;;;;5052751;28;20131;-88
2021/12/07 10:43:52;;;;;;;10.67;2.50;;;;;;;;;;5052365;28;20420;-89
2021/12/07 10:46:24;;;;;;;17.77;2.70;;;;;;;;;;5052569;28;20115;-89
2021/12/07 10:48:49;;;;;;;15.48;3.42;;;;;;;;;;5044544;28;20554;-89
2021/12/07 10:51:14;;;;;;;11.73;2.93;;;;;;;;;;5052300;28;20078;-89
2021/12/07 10:53:39;;;;;;;12.07;1.47;;;;;;;;;;5051914;28;20167;-89
2021/12/07 10:56:25;;;;;;;11.97;1.97;;;;;;;;;;5052571;28;20111;-89
2021/12/07 10:59:04;;;;;;;11.03;2.30;;;;;;;;;;5069284;28;20423;-88
2021/12/07 11:01:37;;;;;;;11.20;2.13;;;;;;;;;;5079499;28;20025;-88
2021/12/07 11:04:21;;;;;;;5.67;1.63;;;;;;;;;;5056269;28;20102;-88
2021/12/07 11:07:04;;;;;;;10.80;2.00;;;;;;;;;;5055292;28;20163;-88
2021/12/07 11:09:35;;;;;;;10.37;2.27;;;;;;;;;;5048078;28;20066;-88
2021/12/07 11:12:14;;;;;;;9.63;1.73;;;;;;;;;;5055880;28;20017;-88
2021/12/07 11:14:41;;;;;;;18.10;2.23;;;;;;;;;;5051490;28;20024;-87
2021/12/07 11:17:07;;;;;;;10.10;1.87;;;;;;;;;;5053065;28;20028;-88
2021/12/07 11:19:33;;;;;;;7.33;1.50;;;;;;;;;;5051178;28;20028;-88
2021/12/07 11:21:58;;;;;;;18.00;1.47;;;;;;;;;;5051543;28;20021;-88
2021/12/07 11:24:36;;;;;;;5.63;1.33;;;;;;;;;;5058663;28;20020;-88
2021/12/07 11:30:01;;;;;;;10.90;1.83;;;;;;;;;;5058661;28;20376;-90
2021/12/07 11:32:26;;;;;;;12.80;2.00;;;;;;;;;;5047355;28;20021;-90
2021/12/07 11:34:51;;;;;;;4.03;1.20;;;;;;;;;;5059836;28;20017;-90
2021/12/07 11:37:17;;;;;;;8.40;1.93;;;;;;;;;;5053233;28;20025;-89
2021/12/07 11:39:48;;;;;;;8.87;1.80;;;;;;;;;;5081836;28;20029;-89
2021/12/07 11:42:24;;;;;;;6.95;1.60;;;;;;;;;;5052044;28;20572;-89
2021/12/07 11:44:49;;;;;;;20.73;2.97;;;;;;;;;;5059901;28;20028;-90
2021/12/07 11:47:15;;;;;;;7.03;1.60;;;;;;;;;;5051775;28;20017;-90
2021/12/07 11:49:40;;;;;;;12.53;1.90;;;;;;;;;;5051661;28;20031;-90
2021/12/07 11:52:07;;;;;;;11.43;1.73;;;;;;;;;;5051246;28;20112;-90
2021/12/07 11:54:34;;;;;;;13.30;1.73;;;;;;;;;;5051565;28;20526;-89
2021/12/07 11:57:00;;;;;;;10.57;1.67;;;;;;;;;;5080348;28;20384;-90
2021/12/07 11:59:25;;;;;;;4.17;1.00;;;;;;;;;;5051527;28;20020;-90
2021/12/07 12:01:51;;;;;;;7.33;1.13;;;;;;;;;;5051613;28;20500;-89
2021/12/07 12:04:17;;;;;;;16.87;2.00;;;;;;;;;;5051793;28;20384;-89
2021/12/07 12:06:45;;;;;;;7.23;1.47;;;;;;;;;;5043410;28;20040;-88
2021/12/07 12:09:11;;;;;;;7.50;2.23;;;;;;;;;;5076981;28;20013;-89
2021/12/07 12:11:44;;;;;;;7.47;1.40;;;;;;;;;;5076848;28;20028;-89
2021/12/07 12:14:28;;;;;;;4.23;0.93;;;;;;;;;;5043201;28;20025;-90
2021/12/07 12:17:08;;;;;;;14.67;1.97;;;;;;;;;;5051224;28;20482;-90
2021/12/07 12:19:37;;;;;;;5.90;1.60;;;;;;;;;;5051389;28;20029;-89
2021/12/07 12:22:09;;;;;;;11.67;1.63;;;;;;;;;;5053931;28;20512;-89
2021/12/07 12:24:55;;;;;;;7.73;0.77;;;;;;;;;;5055887;28;20021;-89
2021/12/07 12:27:30;;;;;;;5.23;0.93;;;;;;;;;;5081607;28;20120;-90
2021/12/07 12:29:56;;;;;;;5.30;1.13;;;;;;;;;;5047749;28;20021;-89
2021/12/07 12:32:26;;;;;;;4.90;1.17;;;;;;;;;;5062649;28;20069;-90
2021/12/07 12:34:51;;;;;;;9.98;1.92;;;;;;;;;;5070898;28;20480;-90
2021/12/07 12:37:18;;;;;;;6.85;1.40;;;;;;;;;;5059744;28;20025;-92
2021/12/07 12:39:43;;;;;;;7.82;1.65;;;;;;;;;;5052058;28;20021;-91
2021/12/07 12:42:09;;;;;;;7.80;1.58;;;;;;;;;;5047964;28;20029;-91
2021/12/07 12:44:36;;;;;;;10.50;2.55;;;;;;;;;;5041061;28;20025;-91
2021/12/07 12:47:01;;;;;;;7.60;1.52;;;;;;;;;;5056032;28;20033;-91
2021/12/07 12:49:37;;;;;;;7.95;1.90;;;;;;;;;;5055783;28;20061;-92
2021/12/07 12:52:03;;;;;;;5.47;0.77;;;;;;;;;;5054937;28;20476;-92
2021/12/07 12:54:36;;;;;;;6.60;2.05;;;;;;;;;;5055133;28;20017;-92
2021/12/07 12:57:12;;;;;;;4.60;1.25;;;;;;;;;;5055388;28;20021;-91
2021/12/07 12:59:38;;;;;;;5.30;1.35;;;;;;;;;;5061034;28;20507;-91
2021/12/07 13:02:04;;;;;;;3.83;1.20;;;;;;;;;;5049873;28;20432;-92
2021/12/07 13:04:30;;;;;;;6.18;1.52;;;;;;;;;;5054909;28;20021;-92
2021/12/07 13:09:40;;;;;;;7.20;1.27;;;;;;;;;;5054637;28;20016;-91
2021/12/07 13:12:13;;;;;;;3.72;1.40;;;;;;;;;;5056731;28;20021;-91
2021/12/07 13:14:53;;;;;;;5.97;1.50;;;;;;;;;;5046761;28;20057;-92
2021/12/07 13:17:19;;;;;;;6.25;1.38;;;;;;;;;;5086804;28;20487;-91
2021/12/07 13:20:03;;;;;;;3.22;1.20;;;;;;;;;;5054576;28;20029;-91
2021/12/07 13:22:37;;;;;;;10.43;1.65;;;;;;;;;;5047924;28;20476;-91
2021/12/07 13:25:07;;;;;;;6.13;1.52;;;;;;;;;;5063508;28;20031;-91
2021/12/07 13:27:32;;;;;;;9.55;1.17;;;;;;;;;;5049414;28;20519;-91
2021/12/07 13:29:57;;;;;;;4.18;1.35;;;;;;;;;;5066380;28;20028;-91
2021/12/07 13:32:23;;;;;;;7.68;1.63;;;;;;;;;;5047929;28;20104;-91
2021/12/07 13:34:59;;;;;;;6.93;1.83;;;;;;;;;;5047514;28;20013;-91
2021/12/07 13:37:42;;;;;;;8.60;1.73;;;;;;;;;;5054588;28;20028;-91
2021/12/07 13:40:16;;;;;;;11.73;1.70;;;;;;;;;;5054519;28;20487;-90
2021/12/07 13:42:45;;;;;;;5.78;1.50;;;;;;;;;;5053324;28;20021;-91
2021/12/07 13:45:11;;;;;;;7.07;2.03;;;;;;;;;;5088187;28;20021;-91
2021/12/07 13:47:40;;;;;;;13.57;2.00;;;;;;;;;;5088199;28;20030;-91
2021/12/07 13:50:10;;;;;;;11.07;2.25;;;;;;;;;;5079988;28;20040;-91
2021/12/07 13:52:36;;;;;;;5.72;1.15;;;;;;;;;;5090049;28;20025;-91
2021/12/07 13:55:04;;;;;;;3.60;1.00;;;;;;;;;;5060171;28;20365;-92
2021/12/07 13:57:32;;;;;;;8.50;1.77;;;;;;;;;;5062176;28;20031;-92
2021/12/07 13:59:58;;;;;;;5.43;1.52;;;;;;;;;;5054466;28;20432;-91
2021/12/07 14:02:24;;;;;;;6.93;1.73;;;;;;;;;;5055356;28;20017;-92
2021/12/07 14:04:57;;;;;;;10.68;2.03;;;;;;;;;;5055089;28;20384;-90
2021/12/07 14:07:23;;;;;;;4.60;1.30;;;;;;;;;;5053243;28;20027;-91
2021/12/07 14:09:48;;;;;;;3.50;1.10;;;;;;;;;;5052970;28;20017;-90
2021/12/07 14:12:20;;;;;;;5.50;1.58;;;;;;;;;;5072701;28;20018;-90
2021/12/07 14:14:46;;;;;;;5.55;1.67;;;;;;;;;;5060702;28;20028;-91
2021/12/07 14:17:11;;;;;;;8.57;1.65;;;;;;;;;;5053597;28;20024;-91
2021/12/07 14:19:36;;;;;;;4.72;1.52;;;;;;;;;;5053340;28;20408;-91
2021/12/07 14:22:03;;;;;;;4.43;1.65;;;;;;;;;;5087390;28;20036;-91
2021/12/07 14:24:28;;;;;;;6.05;1.70;;;;;;;;;;5087083;28;20091;-91
2021/12/07 14:26:53;;;;;;;6.45;1.70;;;;;;;;;;5055224;28;20046;-91
2021/12/07 14:29:21;;;;;;;2.38;0.77;;;;;;;;;;5054519;28;20012;-91
2021/12/07 14:31:51;;;;;;;11.10;1.90;;;;;;;;;;5086937;28;20401;-92
2021/12/07 14:34:21;;;;;;;5.78;1.70;;;;;;;;;;5047574;28;20017;-92
2021/12/07 14:36:48;;;;;;;2.10;1.10;;;;;;;;;;5051670;28;20431;-91
2021/12/07 14:39:18;;;;;;;5.53;1.38;;;;;;;;;;5086923;28;20369;-91
2021/12/07 14:41:48;;;;;;;4.32;0.85;;;;;;;;;;5052919;28;20032;-91
2021/12/07 14:44:21;;;;;;;10.48;1.25;;;;;;;;;;5053156;28;20044;-91
2021/12/07 14:46:46;;;;;;;5.30;1.67;;;;;;;;;;5070461;28;20024;-91
2021/12/07 14:49:12;;;;;;;0.73;0.28;;;;;;;;;;5068864;28;20032;-91
2021/12/07 14:51:38;;;;;;;5.53;1.67;;;;;;;;;;5054380;28;20025;-91
2021/12/07 14:54:04;;;;;;;7.90;1.88;;;;;;;;;;5053172;28;20024;-91
2021/12/07 14:56:30;;;;;;;4.90;1.63;;;;;;;;;;5052804;28;20024;-91
2021/12/07 14:58:56;;;;;;;3.05;0.70;;;;;;;;;;5052950;28;20021;-91
2021/12/07 15:01:23;;;;;;;8.63;1.77;;;;;;;;;;5062940;28;20081;-91
2021/12/07 15:03:52;;;;;;;5.53;1.38;;;;;;;;;;5065182;28;20070;-91
2021/12/07 15:06:19;;;;;;;6.30;1.27;;;;;;;;;;5052637;28;20514;-91
2021/12/07 15:08:45;;;;;;;3.15;1.10;;;;;;;;;;5060355;28;20108;-91
2021/12/07 15:11:11;;;;;;;5.93;1.33;;;;;;;;;;5052818;28;20021;-91
2021/12/07 15:13:36;;;;;;;10.25;1.70;;;;;;;;;;5085585;28;20025;-90
2021/12/07 15:16:04;;;;;;;6.25;1.27;;;;;;;;;;5085367;28;20455;-89
2021/12/07 15:18:31;;;;;;;9.77;1.60;;;;;;;;;;5050700;28;20056;-89
2021/12/07 15:20:56;;;;;;;5.85;1.40;;;;;;;;;;5059905;28;20463;-89
2021/12/07 15:23:22;;;;;;;6.90;1.60;;;;;;;;;;5052220;28;20017;-90
2021/12/07 15:25:48;;;;;;;3.80;0.90;;;;;;;;;;5085424;28;20488;-90
2021/12/07 15:28:15;;;;;;;6.13;1.27;;;;;;;;;;5047776;28;20446;-90
2021/12/07 15:30:40;;;;;;;5.78;1.15;;;;;;;;;;5052194;28;20025;-90
2021/12/07 15:33:05;;;;;;;1.48;0.80;;;;;;;;;;5059533;28;20131;-90
2021/12/07 15:35:30;;;;;;;8.10;0.70;;;;;;;;;;5039343;28;20116;-89
2021/12/07 15:37:56;;;;;;;3.38;0.73;;;;;;;;;;5048265;28;20396;-90
2021/12/07 15:40:21;;;;;;;3.47;0.80;;;;;;;;;;5059375;28;20078;-90
2021/12/07 15:42:46;;;;;;;1.58;0.32;;;;;;;;;;5051566;28;20025;-90
2021/12/07 15:45:13;;;;;;;6.70;1.13;;;;;;;;;;5054709;28;20040;-90
2021/12/07 15:47:43;;;;;;;3.53;1.00;;;;;;;;;;5076391;28;20033;-89
2021/12/07 15:50:23;;;;;;;3.75;1.20;;;;;;;;;;5044730;28;20036;-90
2021/12/07 15:52:52;;;;;;;5.75;0.68;;;;;;;;;;5052739;28;20100;-89
2021/12/07 15:55:29;;;;;;;5.88;1.20;;;;;;;;;;5051341;28;20468;-90
2021/12/07 15:58:06;;;;;;;12.30;1.17;;;;;;;;;;5075796;28;20182;-89
2021/12/07 16:00:41;;;;;;;0.50;0.40;;;;;;;;;;5077331;28;20491;-89
2021/12/07 16:03:07;;;;;;;5.05;1.15;;;;;;;;;;5059312;28;20033;-90
2021/12/07 16:05:37;;;;;;;4.03;0.82;;;;;;;;;;5080089;28;20086;-90
2021/12/07 16:08:10;;;;;;;4.25;0.90;;;;;;;;;;5044727;28;20036;-90
2021/12/07 16:10:36;;;;;;;3.63;0.55;;;;;;;;;;5071250;28;20029;-88
2021/12/07 16:13:03;;;;;;;0.20;0.20;;;;;;;;;;5061909;28;20167;-89
2021/12/07 16:15:28;;;;;;;5.75;1.08;;;;;;;;;;5043203;28;20029;-89
2021/12/07 16:17:54;;;;;;;9.82;1.85;;;;;;;;;;5053216;28;20066;-89
2021/12/07 16:20:20;;;;;;;5.68;1.40;;;;;;;;;;5053816;28;20036;-89
2021/12/07 16:22:45;;;;;;;5.93;1.27;;;;;;;;;;5055139;28;20032;-89